Energy Hercules — WDD3733 — position and weather

sailwx.info

Track history (hours):
 
Tides and Currents Weather Stations Pressure Air Temp Water Temp Dewpoint Dewpoint Depression Visibility Wind Speed Wind Dir Waves Ship Positions

Energy Hercules

Owner: Seabulk Towing Services, Inc., Fort Lauderdale, FL. More information available from US FCC via Universal Licensing System and Coast Guard Vessel Documentation Center.

Last reported at 2018-May-25 01:30 UTC. Time now 2018-May-25 01:31 UTC.
Position N 30°06' W 093°17'.

Length 30 m; draft 4.6 m.

Type: Tug. MMSI: 367135430.

Date/timePositionNaut miles runAvg speedWind from/ knotsBaromVisibWave heightAir tempDewpointWater temp
2018-May-25 01:30N 30°06' W 093°17'0 0.0
2018-May-25 01:00N 30°06' W 093°17'0 0.0
2018-May-25 00:30N 30°06' W 093°17'0 0.0
2018-May-24 23:59N 30°06' W 093°17'0 0.0
2018-May-24 23:30N 30°06' W 093°17'0 0.0
2018-May-24 23:00N 30°06' W 093°17'0 0.0
2018-May-24 22:30N 30°06' W 093°17'0 0.6
2018-May-24 22:00N 30°07' W 093°18'1 2.7
2018-May-24 21:30N 30°06' W 093°19'2 5.0
2018-May-24 21:00N 30°08' W 093°20'4 7.3
2018-May-24 20:30N 30°11' W 093°18'2 4.9
2018-May-24 20:00N 30°13' W 093°15'0 0.0
2018-May-24 19:30N 30°13' W 093°15'0 0.0
2018-May-24 19:00N 30°13' W 093°15'0 0.0
2018-May-24 18:30N 30°13' W 093°15'0 0.0
2018-May-24 18:00N 30°13' W 093°15'0 0.0
2018-May-24 17:30N 30°13' W 093°15'0 0.0
2018-May-24 17:00N 30°13' W 093°15'0 0.0
2018-May-24 16:30N 30°13' W 093°15'0 0.0
2018-May-24 16:00N 30°13' W 093°15'0 0.0
2018-May-24 15:30N 30°13' W 093°15'0 0.0
2018-May-24 15:00N 30°13' W 093°15'0 0.0
2018-May-24 14:30N 30°13' W 093°15'0 0.0
2018-May-24 14:00N 30°13' W 093°15'0 0.0
2018-May-24 13:30N 30°13' W 093°15'0 0.0
2018-May-24 09:00N 30°13' W 093°15'0 0.0
2018-May-24 08:30N 30°13' W 093°15'0 0.0
2018-May-24 08:00N 30°13' W 093°15'0 0.0
2018-May-24 07:30N 30°13' W 093°15'0 0.0
2018-May-24 07:00N 30°13' W 093°15'0 0.0
2018-May-24 06:30N 30°13' W 093°15'0 0.0
2018-May-24 06:00N 30°13' W 093°15'0 0.0
2018-May-24 05:30N 30°13' W 093°15'0 0.0
2018-May-24 05:00N 30°13' W 093°15'0 0.0
2018-May-24 04:30N 30°13' W 093°15'0 0.0
2018-May-24 04:00N 30°13' W 093°15'0 0.0
2018-May-24 03:30N 30°13' W 093°15'0 0.0
2018-May-24 03:00N 30°13' W 093°15'4 7.4
2018-May-24 02:30N 30°11' W 093°19'0 0.4
2018-May-24 02:00N 30°11' W 093°19'0 0.7
2018-May-24 01:29N 30°11' W 093°19'1 1.1
2018-May-24 00:59N 30°10' W 093°19'0 0.0
2018-May-24 00:30N 30°10' W 093°19'4 7.1
2018-May-24 00:00N 30°12' W 093°16'0 0.9
2018-May-23 23:30N 30°13' W 093°15'0 0.0
2018-May-23 23:00N 30°13' W 093°15'0 0.0
2018-May-23 22:30N 30°13' W 093°15'0 0.0
2018-May-23 22:00N 30°13' W 093°15'0 0.0
2018-May-23 21:30N 30°13' W 093°15'0 0.0
2018-May-23 21:00N 30°13' W 093°15'0 0.0
2018-May-23 20:30N 30°13' W 093°15'0 0.0
2018-May-23 20:00N 30°13' W 093°15'0 0.0
2018-May-23 19:28N 30°13' W 093°15'0 0.0
2018-May-23 18:59N 30°13' W 093°15'0 0.0
2018-May-23 18:30N 30°13' W 093°15'0 0.0
2018-May-23 18:00N 30°13' W 093°15'0 0.0
2018-May-23 17:11N 30°13' W 093°15'0 0.0
2018-May-23 16:59N 30°13' W 093°15'0 0.0
2018-May-23 16:30N 30°13' W 093°15'0 0.0
2018-May-23 16:00N 30°13' W 093°15'0 0.0
2018-May-23 15:30N 30°13' W 093°15'0 0.0
2018-May-23 15:00N 30°13' W 093°15'0 0.0
2018-May-23 14:30N 30°13' W 093°15'0 0.0
2018-May-23 14:00N 30°13' W 093°15'0 0.0
2018-May-23 13:30N 30°13' W 093°15'0 0.0
2018-May-23 13:00N 30°13' W 093°15'0 0.0
2018-May-23 12:30N 30°13' W 093°15'0 0.0
2018-May-23 12:00N 30°13' W 093°15'0 0.0
2018-May-23 11:30N 30°13' W 093°15'0 0.0
2018-May-23 11:00N 30°13' W 093°15'0 0.0
2018-May-23 10:30N 30°13' W 093°15'0 0.0
2018-May-23 10:00N 30°13' W 093°15'0 0.0
2018-May-23 09:29N 30°13' W 093°15'0 0.0
2018-May-23 09:00N 30°13' W 093°15'0 0.0
2018-May-23 08:30N 30°13' W 093°15'0 0.0
2018-May-23 08:00N 30°13' W 093°15'0 0.0
2018-May-23 07:30N 30°13' W 093°15'0 0.0
2018-May-23 07:00N 30°13' W 093°15'0 0.0
2018-May-23 06:29N 30°13' W 093°15'0 0.0
2018-May-23 05:38N 30°13' W 093°15'0 0.0
2018-May-23 05:27N 30°13' W 093°15'0 0.0
2018-May-23 04:59N 30°13' W 093°15'0 0.0
2018-May-23 04:28N 30°13' W 093°15'0 0.0
2018-May-23 03:58N 30°13' W 093°15'0 0.0
2018-May-23 03:29N 30°13' W 093°15'0 0.0
2018-May-23 02:58N 30°13' W 093°15'0 0.0
2018-May-23 02:29N 30°13' W 093°15'0 0.0
2018-May-23 02:00N 30°13' W 093°15'0 0.0
2018-May-23 01:29N 30°13' W 093°15'0 0.0
2018-May-23 01:00N 30°13' W 093°15'0 0.0
2018-May-23 00:30N 30°13' W 093°15'0 0.0
2018-May-23 00:00N 30°13' W 093°15'0 0.0
2018-May-22 23:30N 30°13' W 093°15'0 0.0
2018-May-22 23:00N 30°13' W 093°15'0 0.0
2018-May-22 22:29N 30°13' W 093°15'0 0.0
2018-May-22 22:00N 30°13' W 093°15'0 0.0
2018-May-22 21:29N 30°13' W 093°15'0 0.0
2018-May-22 20:58N 30°13' W 093°15'0 0.0
2018-May-22 20:30N 30°13' W 093°15'0 0.0
2018-May-22 20:00N 30°13' W 093°15'0 0.0
2018-May-22 19:30N 30°13' W 093°15'0 0.0
2018-May-22 19:00N 30°13' W 093°15'0 0.0
2018-May-22 18:29N 30°13' W 093°15'0 0.0
2018-May-22 18:00N 30°13' W 093°15'0 0.0
2018-May-22 17:30N 30°13' W 093°15'0 0.0
2018-May-22 17:00N 30°13' W 093°15'0 0.0
2018-May-22 16:30N 30°13' W 093°15'0 0.0
2018-May-22 16:00N 30°13' W 093°15'0 0.0
2018-May-22 15:30N 30°13' W 093°15'0 0.0
2018-May-22 15:00N 30°13' W 093°15'0 0.0
2018-May-22 14:30N 30°13' W 093°15'0 0.0
2018-May-22 14:00N 30°13' W 093°15'0 0.0
2018-May-22 13:30N 30°13' W 093°15'0 0.0
2018-May-22 13:00N 30°13' W 093°15'0 0.0
2018-May-22 12:30N 30°13' W 093°15'0 0.0
2018-May-22 12:00N 30°13' W 093°15'0 0.0
2018-May-22 11:30N 30°13' W 093°15'0 0.0
2018-May-22 11:00N 30°13' W 093°15'0 0.0
2018-May-22 10:27N 30°13' W 093°15'0 0.0
2018-May-22 10:00N 30°13' W 093°15'0 0.0
2018-May-22 09:30N 30°13' W 093°15'0 0.0
2018-May-22 09:00N 30°13' W 093°15'0 0.0
2018-May-22 08:30N 30°13' W 093°15'0 0.0
2018-May-22 08:00N 30°13' W 093°15'0 0.0
2018-May-22 07:29N 30°13' W 093°15'0 0.0
2018-May-22 07:01N 30°13' W 093°15'4 8.3
2018-May-22 06:30N 30°10' W 093°19'0 0.6
2018-May-22 06:00N 30°10' W 093°19'0 0.3
2018-May-22 05:30N 30°10' W 093°19'1 1.2
2018-May-22 05:00N 30°11' W 093°19'3 6.7
2018-May-22 04:30N 30°13' W 093°15'0 0.0
2018-May-22 04:00N 30°13' W 093°15'0 0.0
2018-May-22 03:30N 30°13' W 093°15'0 0.0
2018-May-22 02:58N 30°13' W 093°15'0 0.0
2018-May-22 02:28N 30°13' W 093°15'0 0.0
2018-May-22 01:58N 30°13' W 093°15'0 0.0
2018-May-22 01:18N 30°13' W 093°15'0 0.0
2018-May-22 01:00N 30°13' W 093°15'0 0.0
2018-May-22 00:30N 30°13' W 093°15'0 0.0
2018-May-22 00:00N 30°13' W 093°15'0 0.0
2018-May-21 23:30N 30°13' W 093°15'0 0.0
2018-May-21 23:00N 30°13' W 093°15'0 0.0
2018-May-21 22:30N 30°13' W 093°15'0 0.0
2018-May-21 22:00N 30°13' W 093°15'0 0.0
2018-May-21 21:30N 30°13' W 093°15'0 0.0
2018-May-21 20:59N 30°13' W 093°15'2 4.8
2018-May-21 20:30N 30°12' W 093°18'3 5.3
2018-May-21 20:00N 30°09' W 093°20'1 2.8
2018-May-21 19:30N 30°11' W 093°19'0 0.0
2018-May-21 19:00N 30°11' W 093°19'0 0.7
2018-May-21 18:30N 30°11' W 093°19'3 6.7
2018-May-21 18:00N 30°13' W 093°15'0 0.0
2018-May-21 17:01N 30°13' W 093°15'0 0.0
2018-May-21 17:00N 30°13' W 093°15'0 0.0
2018-May-21 16:17N 30°13' W 093°15'0 0.0
2018-May-21 16:00N 30°13' W 093°15'2 2.7
2018-May-21 15:07N 30°11' W 093°18'1 8.7
2018-May-21 15:01N 30°11' W 093°19'2 4.9
2018-May-21 14:30N 30°09' W 093°20'1 1.7
2018-May-21 14:00N 30°10' W 093°20'1 1.9
2018-May-21 13:30N 30°10' W 093°19'4 7.6
2018-May-21 12:59N 30°13' W 093°15'0 0.0
2018-May-21 12:30N 30°13' W 093°15'0 0.0
2018-May-21 12:00N 30°13' W 093°15'0 0.0
2018-May-21 11:30N 30°13' W 093°15'0 0.0
2018-May-21 11:00N 30°13' W 093°15'0 0.0
2018-May-21 10:30N 30°13' W 093°15'0 0.0
2018-May-21 10:00N 30°13' W 093°15'0 0.0
2018-May-21 09:30N 30°13' W 093°15'0 0.0
2018-May-21 09:00N 30°13' W 093°15'0 0.0
2018-May-21 08:30N 30°13' W 093°15'0 0.0
2018-May-21 08:00N 30°13' W 093°15'0 0.0
2018-May-21 07:30N 30°13' W 093°15'0 0.0
2018-May-21 07:00N 30°13' W 093°15'0 0.0
2018-May-21 06:30N 30°13' W 093°15'0 0.0
2018-May-21 06:00N 30°13' W 093°15'0 0.0
2018-May-21 05:30N 30°13' W 093°15'0 0.0
2018-May-21 05:00N 30°13' W 093°15'0 0.0
2018-May-21 04:30N 30°13' W 093°15'0 0.0
2018-May-21 04:00N 30°13' W 093°15'0 0.0
2018-May-21 03:30N 30°13' W 093°15'0 0.0
2018-May-21 02:59N 30°13' W 093°15'0 0.0
2018-May-21 02:30N 30°13' W 093°15'0 0.0
2018-May-21 02:00N 30°13' W 093°15'0 0.0
2018-May-21 01:30N 30°13' W 093°15'0 0.0
2018-May-21 00:59N 30°13' W 093°15'0 0.0
2018-May-21 00:29N 30°13' W 093°15'0 0.0
2018-May-21 00:00N 30°13' W 093°15'0 0.0
2018-May-20 23:30N 30°13' W 093°15'0 0.0
2018-May-20 23:00N 30°13' W 093°15'0 0.0
2018-May-20 22:26N 30°13' W 093°15'0 0.0
2018-May-20 21:59N 30°13' W 093°15'0 0.0
2018-May-20 21:26N 30°13' W 093°15'0 0.0
2018-May-20 21:00N 30°13' W 093°15'0 0.0
2018-May-20 20:30N 30°13' W 093°15'0 0.0
2018-May-20 20:00N 30°13' W 093°15'0 0.0
2018-May-20 19:30N 30°13' W 093°15'0 0.0
2018-May-20 19:00N 30°13' W 093°15'0 0.0
2018-May-20 18:30N 30°13' W 093°15'0 0.0
2018-May-20 18:00N 30°13' W 093°15'0 0.0
2018-May-20 17:30N 30°13' W 093°15'0 0.0
2018-May-20 17:00N 30°13' W 093°15'0 0.0
2018-May-20 16:30N 30°13' W 093°15'0 0.0
2018-May-20 16:00N 30°13' W 093°15'0 0.0
2018-May-20 15:30N 30°13' W 093°15'0 0.0
2018-May-20 15:00N 30°13' W 093°15'0 0.0
2018-May-20 14:30N 30°13' W 093°15'0 0.0
2018-May-20 13:56N 30°13' W 093°15'0 0.0
2018-May-20 13:29N 30°13' W 093°15'0 0.0
2018-May-20 13:00N 30°13' W 093°15'0 0.0
2018-May-20 12:30N 30°13' W 093°15'0 0.0
2018-May-20 12:00N 30°13' W 093°15'0 0.0
2018-May-20 11:30N 30°13' W 093°15'0 0.0
2018-May-20 11:00N 30°13' W 093°15'0 0.0
2018-May-20 10:30N 30°13' W 093°15'0 0.0
2018-May-20 10:00N 30°13' W 093°15'0 0.0
2018-May-20 09:30N 30°13' W 093°15'0 0.0
2018-May-20 09:00N 30°13' W 093°15'0 0.0
2018-May-20 08:30N 30°13' W 093°15'0 0.0
2018-May-20 08:00N 30°13' W 093°15'0 0.0
2018-May-20 07:30N 30°13' W 093°15'0 0.0
2018-May-20 07:00N 30°13' W 093°15'0 0.0
2018-May-20 06:30N 30°13' W 093°15'0 0.0
2018-May-20 06:00N 30°13' W 093°15'0 0.0
2018-May-20 05:29N 30°13' W 093°15'2 3.5
2018-May-20 05:00N 30°12' W 093°17'4 8.2
2018-May-20 04:30N 30°09' W 093°20'1 1.5
2018-May-20 04:00N 30°09' W 093°20'0 0.1
2018-May-20 03:30N 30°09' W 093°20'0 0.0
2018-May-20 03:00N 30°09' W 093°20'3 6.3
2018-May-20 02:30N 30°12' W 093°17'2 1.4
2018-May-20 01:09N 30°13' W 093°15'0 0.0
2018-May-20 00:55N 30°13' W 093°15'0 0.0
2018-May-20 00:30N 30°13' W 093°15'4 8.1
2018-May-20 00:00N 30°10' W 093°19'1 1.7
2018-May-19 23:30N 30°10' W 093°20'0 0.6
2018-May-19 23:00N 30°09' W 093°20'3 5.0
2018-May-19 22:30N 30°07' W 093°20'3 6.3
2018-May-19 22:00N 30°04' W 093°20'1 2.8
2018-May-19 21:30N 30°05' W 093°20'2 4.7
2018-May-19 21:00N 30°06' W 093°17'0 0.0
2018-May-19 20:30N 30°06' W 093°17'0 0.0
2018-May-19 20:00N 30°06' W 093°17'0 0.0
2018-May-19 19:30N 30°06' W 093°17'2 4.1
2018-May-19 19:00N 30°06' W 093°20'4 7.8
2018-May-19 18:30N 30°10' W 093°19'0 0.4
2018-May-19 18:00N 30°10' W 093°19'1 1.6
2018-May-19 17:30N 30°11' W 093°18'0 0.4
2018-May-19 17:00N 30°11' W 093°18'1 3.0
2018-May-19 16:30N 30°12' W 093°17'2 3.2
2018-May-19 15:57N 30°13' W 093°15'0 0.0
2018-May-19 15:28N 30°13' W 093°15'0 0.0
2018-May-19 15:00N 30°13' W 093°15'0 0.0
2018-May-19 14:28N 30°13' W 093°15'0 0.0
2018-May-19 13:52N 30°13' W 093°15'0 0.0
2018-May-19 13:30N 30°13' W 093°15'0 0.0
2018-May-19 13:00N 30°13' W 093°15'0 0.0
2018-May-19 12:30N 30°13' W 093°15'0 0.0
2018-May-19 11:58N 30°13' W 093°15'0 0.0
2018-May-19 11:29N 30°13' W 093°15'0 0.0
2018-May-19 10:40N 30°13' W 093°15'0 0.0
2018-May-19 10:27N 30°13' W 093°15'0 0.0
2018-May-19 10:00N 30°13' W 093°15'0 0.0
2018-May-19 09:30N 30°13' W 093°15'0 0.0
2018-May-19 08:58N 30°13' W 093°15'0 0.0
2018-May-19 08:22N 30°13' W 093°15'0 0.0
2018-May-19 07:52N 30°13' W 093°15'0 0.0
2018-May-19 07:30N 30°13' W 093°15'0 0.0
2018-May-19 06:42N 30°13' W 093°15'0 0.0
2018-May-19 06:29N 30°13' W 093°15'0 0.0
2018-May-19 05:55N 30°13' W 093°15'0 0.0
2018-May-19 05:30N 30°13' W 093°15'0 0.0
2018-May-19 04:55N 30°13' W 093°15'0 0.0
2018-May-19 04:30N 30°13' W 093°15'2 3.9
2018-May-19 04:00N 30°12' W 093°17'3 6.2
2018-May-19 03:30N 30°09' W 093°20'0 0.0
2018-May-19 03:00N 30°09' W 093°20'0 0.0
2018-May-19 02:30N 30°09' W 093°20'1 2.4
2018-May-19 02:00N 30°08' W 093°20'3 5.4
2018-May-19 01:30N 30°05' W 093°19'2 4.4
2018-May-19 01:00N 30°03' W 093°20'3 6.3
2018-May-19 00:31N 30°06' W 093°18'1 1.8
2018-May-19 00:00N 30°06' W 093°17'0 0.0
2018-May-18 23:30N 30°06' W 093°17'0 0.0
2018-May-18 23:00N 30°06' W 093°17'0 0.0
2018-May-18 22:30N 30°06' W 093°17'0 0.0
2018-May-18 22:00N 30°06' W 093°17'0 0.0
2018-May-18 21:30N 30°06' W 093°17'0 0.0
2018-May-18 21:00N 30°06' W 093°17'0 0.0
2018-May-18 20:30N 30°06' W 093°17'0 0.0
2018-May-18 20:00N 30°06' W 093°17'0 0.0
2018-May-18 19:28N 30°06' W 093°17'0 0.0
2018-May-18 19:00N 30°06' W 093°17'0 0.0
2018-May-18 18:30N 30°06' W 093°17'0 0.0
2018-May-18 18:00N 30°06' W 093°17'0 0.0
2018-May-18 17:30N 30°06' W 093°17'2 3.2
2018-May-18 17:00N 30°06' W 093°19'4 7.4
2018-May-18 16:30N 30°09' W 093°20'1 2.7
2018-May-18 16:00N 30°11' W 093°19'0 0.5
2018-May-18 15:30N 30°11' W 093°19'1 1.9
2018-May-18 15:00N 30°10' W 093°19'0 0.5
2018-May-18 14:30N 30°10' W 093°19'3 5.2
2018-May-18 14:00N 30°12' W 093°17'2 3.1
2018-May-18 13:30N 30°13' W 093°15'0 0.0
2018-May-18 12:58N 30°13' W 093°15'0 0.0
2018-May-18 12:30N 30°13' W 093°15'0 0.0
2018-May-18 12:00N 30°13' W 093°15'0 0.0
2018-May-18 11:30N 30°13' W 093°15'0 0.0
2018-May-18 11:00N 30°13' W 093°15'0 0.0
2018-May-18 10:30N 30°13' W 093°15'0 0.0
2018-May-18 10:00N 30°13' W 093°15'0 0.0
2018-May-18 09:30N 30°13' W 093°15'0 0.0
2018-May-18 09:00N 30°13' W 093°15'0 0.0
2018-May-18 08:30N 30°13' W 093°15'0 0.0
2018-May-18 08:00N 30°13' W 093°15'0 0.0
2018-May-18 07:29N 30°13' W 093°15'0 0.0
2018-May-18 07:00N 30°13' W 093°15'0 0.0
2018-May-18 06:28N 30°13' W 093°15'0 0.0
2018-May-18 06:00N 30°13' W 093°15'0 0.0
2018-May-18 05:28N 30°13' W 093°15'0 0.0
2018-May-18 04:59N 30°13' W 093°15'0 0.0
2018-May-18 04:30N 30°13' W 093°15'0 0.0
2018-May-18 03:58N 30°13' W 093°15'0 0.0
2018-May-18 03:29N 30°13' W 093°15'0 0.0
2018-May-18 03:00N 30°13' W 093°15'0 0.0
2018-May-18 02:30N 30°13' W 093°15'0 0.0
2018-May-18 01:59N 30°13' W 093°15'0 0.0
2018-May-18 01:25N 30°13' W 093°15'0 0.0
2018-May-18 00:58N 30°13' W 093°15'0 0.0
2018-May-18 00:30N 30°13' W 093°15'0 0.0
2018-May-18 00:00N 30°13' W 093°15'0 0.0
2018-May-17 23:30N 30°13' W 093°15'0 0.0
2018-May-17 22:59N 30°13' W 093°15'0 0.0
2018-May-17 22:30N 30°13' W 093°15'1 2.0
2018-May-17 22:00N 30°14' W 093°15'0 0.7
2018-May-17 21:30N 30°13' W 093°15'1 1.3
2018-May-17 20:59N 30°13' W 093°16'0 1.0
2018-May-17 20:30N 30°13' W 093°15'0 0.0
2018-May-17 20:00N 30°13' W 093°15'0 0.0
2018-May-17 19:30N 30°13' W 093°15'0 0.0
2018-May-17 19:00N 30°13' W 093°15'0 0.0
2018-May-17 18:30N 30°13' W 093°15'0 0.0
2018-May-17 18:00N 30°13' W 093°15'0 0.0
2018-May-17 17:30N 30°13' W 093°15'0 0.0
2018-May-17 17:00N 30°13' W 093°15'0 0.0
2018-May-17 16:30N 30°13' W 093°15'0 0.0
2018-May-17 16:00N 30°13' W 093°15'0 0.0
2018-May-17 15:30N 30°13' W 093°15'0 0.0
2018-May-17 15:00N 30°13' W 093°15'0 0.0
2018-May-17 14:30N 30°13' W 093°15'0 0.0
2018-May-17 14:00N 30°13' W 093°15'0 0.0
2018-May-17 13:30N 30°13' W 093°15'0 0.0
2018-May-17 13:00N 30°13' W 093°15'0 0.0
2018-May-17 12:30N 30°13' W 093°15'0 0.0
2018-May-17 12:00N 30°13' W 093°15'0 0.0
2018-May-17 11:30N 30°13' W 093°15'0 0.0
2018-May-17 11:00N 30°13' W 093°15'0 0.0
2018-May-17 10:30N 30°13' W 093°15'0 0.0
2018-May-17 10:00N 30°13' W 093°15'0 0.0
2018-May-17 09:30N 30°13' W 093°15'0 0.0
2018-May-17 09:00N 30°13' W 093°15'0 0.0
2018-May-17 08:30N 30°13' W 093°15'0 0.0
2018-May-17 08:00N 30°13' W 093°15'0 0.0
2018-May-17 07:30N 30°13' W 093°15'0 0.0
2018-May-17 07:00N 30°13' W 093°15'0 0.0
2018-May-17 06:30N 30°13' W 093°15'0 0.0
2018-May-17 06:00N 30°13' W 093°15'0 0.0
2018-May-17 05:30N 30°13' W 093°15'0 0.0
2018-May-17 05:00N 30°13' W 093°15'0 0.0
2018-May-17 04:30N 30°13' W 093°15'0 0.0
2018-May-17 04:00N 30°13' W 093°15'0 0.0
2018-May-17 03:30N 30°13' W 093°15'0 0.0
2018-May-17 03:00N 30°13' W 093°15'0 0.0
2018-May-17 02:30N 30°13' W 093°15'0 0.0
2018-May-17 02:00N 30°13' W 093°15'0 0.0
2018-May-17 01:30N 30°13' W 093°15'0 0.0
2018-May-17 01:00N 30°13' W 093°15'0 0.0
2018-May-17 00:30N 30°13' W 093°15'0 0.0
2018-May-17 00:00N 30°13' W 093°15'0 0.0
2018-May-16 23:30N 30°13' W 093°15'0 0.0
2018-May-16 23:00N 30°13' W 093°15'0 0.0
2018-May-16 22:30N 30°13' W 093°15'0 0.0
2018-May-16 22:00N 30°13' W 093°15'0 0.0
2018-May-16 21:30N 30°13' W 093°15'0 0.0
2018-May-16 21:00N 30°13' W 093°15'0 0.0
2018-May-16 20:30N 30°13' W 093°15'0 0.0
2018-May-16 20:00N 30°13' W 093°15'1 1.3
2018-May-16 19:30N 30°12' W 093°16'1 1.8
2018-May-16 19:00N 30°13' W 093°16'1 1.7
2018-May-16 18:30N 30°14' W 093°15'1 2.0
2018-May-16 18:00N 30°13' W 093°15'0 0.0
2018-May-16 17:30N 30°13' W 093°15'0 0.0
2018-May-16 17:00N 30°13' W 093°15'0 0.0
2018-May-16 16:30N 30°13' W 093°15'0 0.0
2018-May-16 16:00N 30°13' W 093°15'0 0.0
2018-May-16 15:30N 30°13' W 093°15'0 0.0
2018-May-16 15:00N 30°13' W 093°15'0 0.0
2018-May-16 14:30N 30°13' W 093°15'0 0.0
2018-May-16 14:00N 30°13' W 093°15'0 0.0
2018-May-16 13:30N 30°13' W 093°15'0 0.0
2018-May-16 13:00N 30°13' W 093°15'2 3.4
2018-May-16 12:30N 30°12' W 093°17'2 4.3
2018-May-16 12:00N 30°11' W 093°19'0 0.4
2018-May-16 11:30N 30°11' W 093°19'3 5.9
2018-May-16 11:00N 30°12' W 093°16'1 1.5
2018-May-16 10:30N 30°13' W 093°15'0 0.0
2018-May-16 10:00N 30°13' W 093°15'0 0.0
2018-May-16 09:30N 30°13' W 093°15'0 0.0
2018-May-16 09:00N 30°13' W 093°15'0 0.0
2018-May-16 08:30N 30°13' W 093°15'0 0.0
2018-May-16 08:00N 30°13' W 093°15'0 0.0
2018-May-16 07:30N 30°13' W 093°15'0 0.0
2018-May-16 07:00N 30°13' W 093°15'0 0.0
2018-May-16 06:30N 30°13' W 093°15'0 0.0
2018-May-16 05:58N 30°13' W 093°15'0 0.0
2018-May-16 05:30N 30°13' W 093°15'0 0.0
2018-May-16 04:57N 30°13' W 093°15'0 0.0
2018-May-16 04:30N 30°13' W 093°15'0 0.0
2018-May-16 03:59N 30°13' W 093°15'0 0.0
2018-May-16 03:30N 30°13' W 093°15'0 0.0
2018-May-16 02:59N 30°13' W 093°15'0 0.0
2018-May-16 02:30N 30°13' W 093°15'0 0.0
2018-May-16 01:58N 30°13' W 093°15'0 0.0
2018-May-16 01:30N 30°13' W 093°15'0 0.0
2018-May-16 00:57N 30°13' W 093°15'0 0.0
2018-May-16 00:30N 30°13' W 093°15'0 0.0
2018-May-16 00:00N 30°13' W 093°15'0 0.0
2018-May-15 23:30N 30°13' W 093°15'0 0.0
2018-May-15 23:00N 30°13' W 093°15'0 0.0
2018-May-15 22:30N 30°13' W 093°15'0 0.0
2018-May-15 21:59N 30°13' W 093°15'0 0.0
2018-May-15 21:30N 30°13' W 093°15'0 0.0
2018-May-15 21:00N 30°13' W 093°15'0 0.0
2018-May-15 20:30N 30°13' W 093°15'0 0.0
2018-May-15 20:00N 30°13' W 093°15'0 0.0
2018-May-15 19:29N 30°13' W 093°15'0 0.0
2018-May-15 19:00N 30°13' W 093°15'0 0.0
2018-May-15 18:30N 30°13' W 093°15'0 0.0
2018-May-15 18:00N 30°13' W 093°15'0 0.0
2018-May-15 17:30N 30°13' W 093°15'0 0.0
2018-May-15 17:00N 30°13' W 093°15'0 0.0
2018-May-15 16:30N 30°13' W 093°15'0 0.0
2018-May-15 16:00N 30°13' W 093°15'0 0.0
2018-May-15 15:30N 30°13' W 093°15'0 0.0
2018-May-15 15:00N 30°13' W 093°15'0 0.0
2018-May-15 14:30N 30°13' W 093°15'0 0.0
2018-May-15 14:00N 30°13' W 093°15'0 0.0
2018-May-15 13:30N 30°13' W 093°15'2 4.6
2018-May-15 13:00N 30°12' W 093°18'4 7.1
2018-May-15 12:30N 30°09' W 093°20'1 1.6
2018-May-15 12:00N 30°09' W 093°20'0 0.5
2018-May-15 11:30N 30°09' W 093°20'2 4.7
2018-May-15 11:00N 30°11' W 093°18'3 5.1
2018-May-15 10:30N 30°13' W 093°15'0 0.0
2018-May-15 10:00N 30°13' W 093°15'0 0.0
2018-May-15 09:30N 30°13' W 093°15'0 0.0
2018-May-15 09:00N 30°13' W 093°15'2 5.0
2018-May-15 08:30N 30°11' W 093°18'1 2.9
2018-May-15 08:00N 30°10' W 093°19'0 0.1
2018-May-15 07:30N 30°11' W 093°19'1 1.3
2018-May-15 07:00N 30°11' W 093°18'0 0.6
2018-May-15 06:30N 30°11' W 093°19'0 0.5
2018-May-15 06:00N 30°11' W 093°19'0 0.0
2018-May-15 05:28N 30°11' W 093°19'2 4.1
2018-May-15 05:01N 30°09' W 093°20'2 4.0
2018-May-15 04:30N 30°11' W 093°19'1 2.3
2018-May-15 04:00N 30°12' W 093°18'1 2.8
2018-May-15 03:30N 30°11' W 093°19'0 0.6
2018-May-15 03:00N 30°11' W 093°19'2 4.5
2018-May-15 02:31N 30°12' W 093°17'1 2.3
2018-May-15 02:00N 30°13' W 093°17'  
Track history (hours):
 
Tides and Currents Weather Stations Pressure Air Temp Water Temp Dewpoint Dewpoint Depression Visibility Wind Speed Wind Dir Waves Ship Positions

Energy Hercules

Owner: Seabulk Towing Services, Inc., Fort Lauderdale, FL. More information available from US FCC via Universal Licensing System and Coast Guard Vessel Documentation Center.

Last reported at 2018-May-25 01:30 UTC. Time now 2018-May-25 01:31 UTC.
Position N 30°06' W 093°17'.

Length 30 m; draft 4.6 m.

Type: Tug. MMSI: 367135430.

Date/timePositionNaut miles runAvg speedWind from/ knotsBaromVisibWave heightAir tempDewpointWater temp
2018-May-25 01:30N 30°06' W 093°17'0 0.0
2018-May-25 01:00N 30°06' W 093°17'0 0.0
2018-May-25 00:30N 30°06' W 093°17'0 0.0
2018-May-24 23:59N 30°06' W 093°17'0 0.0
2018-May-24 23:30N 30°06' W 093°17'0 0.0
2018-May-24 23:00N 30°06' W 093°17'0 0.0
2018-May-24 22:30N 30°06' W 093°17'0 0.6
2018-May-24 22:00N 30°07' W 093°18'1 2.7
2018-May-24 21:30N 30°06' W 093°19'2 5.0
2018-May-24 21:00N 30°08' W 093°20'4 7.3
2018-May-24 20:30N 30°11' W 093°18'2 4.9
2018-May-24 20:00N 30°13' W 093°15'0 0.0
2018-May-24 19:30N 30°13' W 093°15'0 0.0
2018-May-24 19:00N 30°13' W 093°15'0 0.0
2018-May-24 18:30N 30°13' W 093°15'0 0.0
2018-May-24 18:00N 30°13' W 093°15'0 0.0
2018-May-24 17:30N 30°13' W 093°15'0 0.0
2018-May-24 17:00N 30°13' W 093°15'0 0.0
2018-May-24 16:30N 30°13' W 093°15'0 0.0
2018-May-24 16:00N 30°13' W 093°15'0 0.0
2018-May-24 15:30N 30°13' W 093°15'0 0.0
2018-May-24 15:00N 30°13' W 093°15'0 0.0
2018-May-24 14:30N 30°13' W 093°15'0 0.0
2018-May-24 14:00N 30°13' W 093°15'0 0.0
2018-May-24 13:30N 30°13' W 093°15'0 0.0
2018-May-24 09:00N 30°13' W 093°15'0 0.0
2018-May-24 08:30N 30°13' W 093°15'0 0.0
2018-May-24 08:00N 30°13' W 093°15'0 0.0
2018-May-24 07:30N 30°13' W 093°15'0 0.0
2018-May-24 07:00N 30°13' W 093°15'0 0.0
2018-May-24 06:30N 30°13' W 093°15'0 0.0
2018-May-24 06:00N 30°13' W 093°15'0 0.0
2018-May-24 05:30N 30°13' W 093°15'0 0.0
2018-May-24 05:00N 30°13' W 093°15'0 0.0
2018-May-24 04:30N 30°13' W 093°15'0 0.0
2018-May-24 04:00N 30°13' W 093°15'0 0.0
2018-May-24 03:30N 30°13' W 093°15'0 0.0
2018-May-24 03:00N 30°13' W 093°15'4 7.4
2018-May-24 02:30N 30°11' W 093°19'0 0.4
2018-May-24 02:00N 30°11' W 093°19'0 0.7
2018-May-24 01:29N 30°11' W 093°19'1 1.1
2018-May-24 00:59N 30°10' W 093°19'0 0.0
2018-May-24 00:30N 30°10' W 093°19'4 7.1
2018-May-24 00:00N 30°12' W 093°16'0 0.9
2018-May-23 23:30N 30°13' W 093°15'0 0.0
2018-May-23 23:00N 30°13' W 093°15'0 0.0
2018-May-23 22:30N 30°13' W 093°15'0 0.0
2018-May-23 22:00N 30°13' W 093°15'0 0.0
2018-May-23 21:30N 30°13' W 093°15'0 0.0
2018-May-23 21:00N 30°13' W 093°15'0 0.0
2018-May-23 20:30N 30°13' W 093°15'0 0.0
2018-May-23 20:00N 30°13' W 093°15'0 0.0
2018-May-23 19:28N 30°13' W 093°15'0 0.0
2018-May-23 18:59N 30°13' W 093°15'0 0.0
2018-May-23 18:30N 30°13' W 093°15'0 0.0
2018-May-23 18:00N 30°13' W 093°15'0 0.0
2018-May-23 17:11N 30°13' W 093°15'0 0.0
2018-May-23 16:59N 30°13' W 093°15'0 0.0
2018-May-23 16:30N 30°13' W 093°15'0 0.0
2018-May-23 16:00N 30°13' W 093°15'0 0.0
2018-May-23 15:30N 30°13' W 093°15'0 0.0
2018-May-23 15:00N 30°13' W 093°15'0 0.0
2018-May-23 14:30N 30°13' W 093°15'0 0.0
2018-May-23 14:00N 30°13' W 093°15'0 0.0
2018-May-23 13:30N 30°13' W 093°15'0 0.0
2018-May-23 13:00N 30°13' W 093°15'0 0.0
2018-May-23 12:30N 30°13' W 093°15'0 0.0
2018-May-23 12:00N 30°13' W 093°15'0 0.0
2018-May-23 11:30N 30°13' W 093°15'0 0.0
2018-May-23 11:00N 30°13' W 093°15'0 0.0
2018-May-23 10:30N 30°13' W 093°15'0 0.0
2018-May-23 10:00N 30°13' W 093°15'0 0.0
2018-May-23 09:29N 30°13' W 093°15'0 0.0
2018-May-23 09:00N 30°13' W 093°15'0 0.0
2018-May-23 08:30N 30°13' W 093°15'0 0.0
2018-May-23 08:00N 30°13' W 093°15'0 0.0
2018-May-23 07:30N 30°13' W 093°15'0 0.0
2018-May-23 07:00N 30°13' W 093°15'0 0.0
2018-May-23 06:29N 30°13' W 093°15'0 0.0
2018-May-23 05:38N 30°13' W 093°15'0 0.0
2018-May-23 05:27N 30°13' W 093°15'0 0.0
2018-May-23 04:59N 30°13' W 093°15'0 0.0
2018-May-23 04:28N 30°13' W 093°15'0 0.0
2018-May-23 03:58N 30°13' W 093°15'0 0.0
2018-May-23 03:29N 30°13' W 093°15'0 0.0
2018-May-23 02:58N 30°13' W 093°15'0 0.0
2018-May-23 02:29N 30°13' W 093°15'0 0.0
2018-May-23 02:00N 30°13' W 093°15'0 0.0
2018-May-23 01:29N 30°13' W 093°15'0 0.0
2018-May-23 01:00N 30°13' W 093°15'0 0.0
2018-May-23 00:30N 30°13' W 093°15'0 0.0
2018-May-23 00:00N 30°13' W 093°15'0 0.0
2018-May-22 23:30N 30°13' W 093°15'0 0.0
2018-May-22 23:00N 30°13' W 093°15'0 0.0
2018-May-22 22:29N 30°13' W 093°15'0 0.0
2018-May-22 22:00N 30°13' W 093°15'0 0.0
2018-May-22 21:29N 30°13' W 093°15'0 0.0
2018-May-22 20:58N 30°13' W 093°15'0 0.0
2018-May-22 20:30N 30°13' W 093°15'0 0.0
2018-May-22 20:00N 30°13' W 093°15'0 0.0
2018-May-22 19:30N 30°13' W 093°15'0 0.0
2018-May-22 19:00N 30°13' W 093°15'0 0.0
2018-May-22 18:29N 30°13' W 093°15'0 0.0
2018-May-22 18:00N 30°13' W 093°15'0 0.0
2018-May-22 17:30N 30°13' W 093°15'0 0.0
2018-May-22 17:00N 30°13' W 093°15'0 0.0
2018-May-22 16:30N 30°13' W 093°15'0 0.0
2018-May-22 16:00N 30°13' W 093°15'0 0.0
2018-May-22 15:30N 30°13' W 093°15'0 0.0
2018-May-22 15:00N 30°13' W 093°15'0 0.0
2018-May-22 14:30N 30°13' W 093°15'0 0.0
2018-May-22 14:00N 30°13' W 093°15'0 0.0
2018-May-22 13:30N 30°13' W 093°15'0 0.0
2018-May-22 13:00N 30°13' W 093°15'0 0.0
2018-May-22 12:30N 30°13' W 093°15'0 0.0
2018-May-22 12:00N 30°13' W 093°15'0 0.0
2018-May-22 11:30N 30°13' W 093°15'0 0.0
2018-May-22 11:00N 30°13' W 093°15'0 0.0
2018-May-22 10:27N 30°13' W 093°15'0 0.0
2018-May-22 10:00N 30°13' W 093°15'0 0.0
2018-May-22 09:30N 30°13' W 093°15'0 0.0
2018-May-22 09:00N 30°13' W 093°15'0 0.0
2018-May-22 08:30N 30°13' W 093°15'0 0.0
2018-May-22 08:00N 30°13' W 093°15'0 0.0
2018-May-22 07:29N 30°13' W 093°15'0 0.0
2018-May-22 07:01N 30°13' W 093°15'4 8.3
2018-May-22 06:30N 30°10' W 093°19'0 0.6
2018-May-22 06:00N 30°10' W 093°19'0 0.3
2018-May-22 05:30N 30°10' W 093°19'1 1.2
2018-May-22 05:00N 30°11' W 093°19'3 6.7
2018-May-22 04:30N 30°13' W 093°15'0 0.0
2018-May-22 04:00N 30°13' W 093°15'0 0.0
2018-May-22 03:30N 30°13' W 093°15'0 0.0
2018-May-22 02:58N 30°13' W 093°15'0 0.0
2018-May-22 02:28N 30°13' W 093°15'0 0.0
2018-May-22 01:58N 30°13' W 093°15'0 0.0
2018-May-22 01:18N 30°13' W 093°15'0 0.0
2018-May-22 01:00N 30°13' W 093°15'0 0.0
2018-May-22 00:30N 30°13' W 093°15'0 0.0
2018-May-22 00:00N 30°13' W 093°15'0 0.0
2018-May-21 23:30N 30°13' W 093°15'0 0.0
2018-May-21 23:00N 30°13' W 093°15'0 0.0
2018-May-21 22:30N 30°13' W 093°15'0 0.0
2018-May-21 22:00N 30°13' W 093°15'0 0.0
2018-May-21 21:30N 30°13' W 093°15'0 0.0
2018-May-21 20:59N 30°13' W 093°15'2 4.8
2018-May-21 20:30N 30°12' W 093°18'3 5.3
2018-May-21 20:00N 30°09' W 093°20'1 2.8
2018-May-21 19:30N 30°11' W 093°19'0 0.0
2018-May-21 19:00N 30°11' W 093°19'0 0.7
2018-May-21 18:30N 30°11' W 093°19'3 6.7
2018-May-21 18:00N 30°13' W 093°15'0 0.0
2018-May-21 17:01N 30°13' W 093°15'0 0.0
2018-May-21 17:00N 30°13' W 093°15'0 0.0
2018-May-21 16:17N 30°13' W 093°15'0 0.0
2018-May-21 16:00N 30°13' W 093°15'2 2.7
2018-May-21 15:07N 30°11' W 093°18'1 8.7
2018-May-21 15:01N 30°11' W 093°19'2 4.9
2018-May-21 14:30N 30°09' W 093°20'1 1.7
2018-May-21 14:00N 30°10' W 093°20'1 1.9
2018-May-21 13:30N 30°10' W 093°19'4 7.6
2018-May-21 12:59N 30°13' W 093°15'0 0.0
2018-May-21 12:30N 30°13' W 093°15'0 0.0
2018-May-21 12:00N 30°13' W 093°15'0 0.0
2018-May-21 11:30N 30°13' W 093°15'0 0.0
2018-May-21 11:00N 30°13' W 093°15'0 0.0
2018-May-21 10:30N 30°13' W 093°15'0 0.0
2018-May-21 10:00N 30°13' W 093°15'0 0.0
2018-May-21 09:30N 30°13' W 093°15'0 0.0
2018-May-21 09:00N 30°13' W 093°15'0 0.0
2018-May-21 08:30N 30°13' W 093°15'0 0.0
2018-May-21 08:00N 30°13' W 093°15'0 0.0
2018-May-21 07:30N 30°13' W 093°15'0 0.0
2018-May-21 07:00N 30°13' W 093°15'0 0.0
2018-May-21 06:30N 30°13' W 093°15'0 0.0
2018-May-21 06:00N 30°13' W 093°15'0 0.0
2018-May-21 05:30N 30°13' W 093°15'0 0.0
2018-May-21 05:00N 30°13' W 093°15'0 0.0
2018-May-21 04:30N 30°13' W 093°15'0 0.0
2018-May-21 04:00N 30°13' W 093°15'0 0.0
2018-May-21 03:30N 30°13' W 093°15'0 0.0
2018-May-21 02:59N 30°13' W 093°15'0 0.0
2018-May-21 02:30N 30°13' W 093°15'0 0.0
2018-May-21 02:00N 30°13' W 093°15'0 0.0
2018-May-21 01:30N 30°13' W 093°15'0 0.0
2018-May-21 00:59N 30°13' W 093°15'0 0.0
2018-May-21 00:29N 30°13' W 093°15'0 0.0
2018-May-21 00:00N 30°13' W 093°15'0 0.0
2018-May-20 23:30N 30°13' W 093°15'0 0.0
2018-May-20 23:00N 30°13' W 093°15'0 0.0
2018-May-20 22:26N 30°13' W 093°15'0 0.0
2018-May-20 21:59N 30°13' W 093°15'0 0.0
2018-May-20 21:26N 30°13' W 093°15'0 0.0
2018-May-20 21:00N 30°13' W 093°15'0 0.0
2018-May-20 20:30N 30°13' W 093°15'0 0.0
2018-May-20 20:00N 30°13' W 093°15'0 0.0
2018-May-20 19:30N 30°13' W 093°15'0 0.0
2018-May-20 19:00N 30°13' W 093°15'0 0.0
2018-May-20 18:30N 30°13' W 093°15'0 0.0
2018-May-20 18:00N 30°13' W 093°15'0 0.0
2018-May-20 17:30N 30°13' W 093°15'0 0.0
2018-May-20 17:00N 30°13' W 093°15'0 0.0
2018-May-20 16:30N 30°13' W 093°15'0 0.0
2018-May-20 16:00N 30°13' W 093°15'0 0.0
2018-May-20 15:30N 30°13' W 093°15'0 0.0
2018-May-20 15:00N 30°13' W 093°15'0 0.0
2018-May-20 14:30N 30°13' W 093°15'0 0.0
2018-May-20 13:56N 30°13' W 093°15'0 0.0
2018-May-20 13:29N 30°13' W 093°15'0 0.0
2018-May-20 13:00N 30°13' W 093°15'0 0.0
2018-May-20 12:30N 30°13' W 093°15'0 0.0
2018-May-20 12:00N 30°13' W 093°15'0 0.0
2018-May-20 11:30N 30°13' W 093°15'0 0.0
2018-May-20 11:00N 30°13' W 093°15'0 0.0
2018-May-20 10:30N 30°13' W 093°15'0 0.0
2018-May-20 10:00N 30°13' W 093°15'0 0.0
2018-May-20 09:30N 30°13' W 093°15'0 0.0
2018-May-20 09:00N 30°13' W 093°15'0 0.0
2018-May-20 08:30N 30°13' W 093°15'0 0.0
2018-May-20 08:00N 30°13' W 093°15'0 0.0
2018-May-20 07:30N 30°13' W 093°15'0 0.0
2018-May-20 07:00N 30°13' W 093°15'0 0.0
2018-May-20 06:30N 30°13' W 093°15'0 0.0
2018-May-20 06:00N 30°13' W 093°15'0 0.0
2018-May-20 05:29N 30°13' W 093°15'2 3.5
2018-May-20 05:00N 30°12' W 093°17'4 8.2
2018-May-20 04:30N 30°09' W 093°20'1 1.5
2018-May-20 04:00N 30°09' W 093°20'0 0.1
2018-May-20 03:30N 30°09' W 093°20'0 0.0
2018-May-20 03:00N 30°09' W 093°20'3 6.3
2018-May-20 02:30N 30°12' W 093°17'2 1.4
2018-May-20 01:09N 30°13' W 093°15'0 0.0
2018-May-20 00:55N 30°13' W 093°15'0 0.0
2018-May-20 00:30N 30°13' W 093°15'4 8.1
2018-May-20 00:00N 30°10' W 093°19'1 1.7
2018-May-19 23:30N 30°10' W 093°20'0 0.6
2018-May-19 23:00N 30°09' W 093°20'3 5.0
2018-May-19 22:30N 30°07' W 093°20'3 6.3
2018-May-19 22:00N 30°04' W 093°20'1 2.8
2018-May-19 21:30N 30°05' W 093°20'2 4.7
2018-May-19 21:00N 30°06' W 093°17'0 0.0
2018-May-19 20:30N 30°06' W 093°17'0 0.0
2018-May-19 20:00N 30°06' W 093°17'0 0.0
2018-May-19 19:30N 30°06' W 093°17'2 4.1
2018-May-19 19:00N 30°06' W 093°20'4 7.8
2018-May-19 18:30N 30°10' W 093°19'0 0.4
2018-May-19 18:00N 30°10' W 093°19'1 1.6
2018-May-19 17:30N 30°11' W 093°18'0 0.4
2018-May-19 17:00N 30°11' W 093°18'1 3.0
2018-May-19 16:30N 30°12' W 093°17'2 3.2
2018-May-19 15:57N 30°13' W 093°15'0 0.0
2018-May-19 15:28N 30°13' W 093°15'0 0.0
2018-May-19 15:00N 30°13' W 093°15'0 0.0
2018-May-19 14:28N 30°13' W 093°15'0 0.0
2018-May-19 13:52N 30°13' W 093°15'0 0.0
2018-May-19 13:30N 30°13' W 093°15'0 0.0
2018-May-19 13:00N 30°13' W 093°15'0 0.0
2018-May-19 12:30N 30°13' W 093°15'0 0.0
2018-May-19 11:58N 30°13' W 093°15'0 0.0
2018-May-19 11:29N 30°13' W 093°15'0 0.0
2018-May-19 10:40N 30°13' W 093°15'0 0.0
2018-May-19 10:27N 30°13' W 093°15'0 0.0
2018-May-19 10:00N 30°13' W 093°15'0 0.0
2018-May-19 09:30N 30°13' W 093°15'0 0.0
2018-May-19 08:58N 30°13' W 093°15'0 0.0
2018-May-19 08:22N 30°13' W 093°15'0 0.0
2018-May-19 07:52N 30°13' W 093°15'0 0.0
2018-May-19 07:30N 30°13' W 093°15'0 0.0
2018-May-19 06:42N 30°13' W 093°15'0 0.0
2018-May-19 06:29N 30°13' W 093°15'0 0.0
2018-May-19 05:55N 30°13' W 093°15'0 0.0
2018-May-19 05:30N 30°13' W 093°15'0 0.0
2018-May-19 04:55N 30°13' W 093°15'0 0.0
2018-May-19 04:30N 30°13' W 093°15'2 3.9
2018-May-19 04:00N 30°12' W 093°17'3 6.2
2018-May-19 03:30N 30°09' W 093°20'0 0.0
2018-May-19 03:00N 30°09' W 093°20'0 0.0
2018-May-19 02:30N 30°09' W 093°20'1 2.4
2018-May-19 02:00N 30°08' W 093°20'3 5.4
2018-May-19 01:30N 30°05' W 093°19'2 4.4
2018-May-19 01:00N 30°03' W 093°20'3 6.3
2018-May-19 00:31N 30°06' W 093°18'1 1.8
2018-May-19 00:00N 30°06' W 093°17'0 0.0
2018-May-18 23:30N 30°06' W 093°17'0 0.0
2018-May-18 23:00N 30°06' W 093°17'0 0.0
2018-May-18 22:30N 30°06' W 093°17'0 0.0
2018-May-18 22:00N 30°06' W 093°17'0 0.0
2018-May-18 21:30N 30°06' W 093°17'0 0.0
2018-May-18 21:00N 30°06' W 093°17'0 0.0
2018-May-18 20:30N 30°06' W 093°17'0 0.0
2018-May-18 20:00N 30°06' W 093°17'0 0.0
2018-May-18 19:28N 30°06' W 093°17'0 0.0
2018-May-18 19:00N 30°06' W 093°17'0 0.0
2018-May-18 18:30N 30°06' W 093°17'0 0.0
2018-May-18 18:00N 30°06' W 093°17'0 0.0
2018-May-18 17:30N 30°06' W 093°17'2 3.2
2018-May-18 17:00N 30°06' W 093°19'4 7.4
2018-May-18 16:30N 30°09' W 093°20'1 2.7
2018-May-18 16:00N 30°11' W 093°19'0 0.5
2018-May-18 15:30N 30°11' W 093°19'1 1.9
2018-May-18 15:00N 30°10' W 093°19'0 0.5
2018-May-18 14:30N 30°10' W 093°19'3 5.2
2018-May-18 14:00N 30°12' W 093°17'2 3.1
2018-May-18 13:30N 30°13' W 093°15'0 0.0
2018-May-18 12:58N 30°13' W 093°15'0 0.0
2018-May-18 12:30N 30°13' W 093°15'0 0.0
2018-May-18 12:00N 30°13' W 093°15'0 0.0
2018-May-18 11:30N 30°13' W 093°15'0 0.0
2018-May-18 11:00N 30°13' W 093°15'0 0.0
2018-May-18 10:30N 30°13' W 093°15'0 0.0
2018-May-18 10:00N 30°13' W 093°15'0 0.0
2018-May-18 09:30N 30°13' W 093°15'0 0.0
2018-May-18 09:00N 30°13' W 093°15'0 0.0
2018-May-18 08:30N 30°13' W 093°15'0 0.0
2018-May-18 08:00N 30°13' W 093°15'0 0.0
2018-May-18 07:29N 30°13' W 093°15'0 0.0
2018-May-18 07:00N 30°13' W 093°15'0 0.0
2018-May-18 06:28N 30°13' W 093°15'0 0.0
2018-May-18 06:00N 30°13' W 093°15'0 0.0
2018-May-18 05:28N 30°13' W 093°15'0 0.0
2018-May-18 04:59N 30°13' W 093°15'0 0.0
2018-May-18 04:30N 30°13' W 093°15'0 0.0
2018-May-18 03:58N 30°13' W 093°15'0 0.0
2018-May-18 03:29N 30°13' W 093°15'0 0.0
2018-May-18 03:00N 30°13' W 093°15'0 0.0
2018-May-18 02:30N 30°13' W 093°15'0 0.0
2018-May-18 01:59N 30°13' W 093°15'0 0.0
2018-May-18 01:25N 30°13' W 093°15'0 0.0
2018-May-18 00:58N 30°13' W 093°15'0 0.0
2018-May-18 00:30N 30°13' W 093°15'0 0.0
2018-May-18 00:00N 30°13' W 093°15'0 0.0
2018-May-17 23:30N 30°13' W 093°15'0 0.0
2018-May-17 22:59N 30°13' W 093°15'0 0.0
2018-May-17 22:30N 30°13' W 093°15'1 2.0
2018-May-17 22:00N 30°14' W 093°15'0 0.7
2018-May-17 21:30N 30°13' W 093°15'1 1.3
2018-May-17 20:59N 30°13' W 093°16'0 1.0
2018-May-17 20:30N 30°13' W 093°15'0 0.0
2018-May-17 20:00N 30°13' W 093°15'0 0.0
2018-May-17 19:30N 30°13' W 093°15'0 0.0
2018-May-17 19:00N 30°13' W 093°15'0 0.0
2018-May-17 18:30N 30°13' W 093°15'0 0.0
2018-May-17 18:00N 30°13' W 093°15'0 0.0
2018-May-17 17:30N 30°13' W 093°15'0 0.0
2018-May-17 17:00N 30°13' W 093°15'0 0.0
2018-May-17 16:30N 30°13' W 093°15'0 0.0
2018-May-17 16:00N 30°13' W 093°15'0 0.0
2018-May-17 15:30N 30°13' W 093°15'0 0.0
2018-May-17 15:00N 30°13' W 093°15'0 0.0
2018-May-17 14:30N 30°13' W 093°15'0 0.0
2018-May-17 14:00N 30°13' W 093°15'0 0.0
2018-May-17 13:30N 30°13' W 093°15'0 0.0
2018-May-17 13:00N 30°13' W 093°15'0 0.0
2018-May-17 12:30N 30°13' W 093°15'0 0.0
2018-May-17 12:00N 30°13' W 093°15'0 0.0
2018-May-17 11:30N 30°13' W 093°15'0 0.0
2018-May-17 11:00N 30°13' W 093°15'0 0.0
2018-May-17 10:30N 30°13' W 093°15'0 0.0
2018-May-17 10:00N 30°13' W 093°15'0 0.0
2018-May-17 09:30N 30°13' W 093°15'0 0.0
2018-May-17 09:00N 30°13' W 093°15'0 0.0
2018-May-17 08:30N 30°13' W 093°15'0 0.0
2018-May-17 08:00N 30°13' W 093°15'0 0.0
2018-May-17 07:30N 30°13' W 093°15'0 0.0
2018-May-17 07:00N 30°13' W 093°15'0 0.0
2018-May-17 06:30N 30°13' W 093°15'0 0.0
2018-May-17 06:00N 30°13' W 093°15'0 0.0
2018-May-17 05:30N 30°13' W 093°15'0 0.0
2018-May-17 05:00N 30°13' W 093°15'0 0.0
2018-May-17 04:30N 30°13' W 093°15'0 0.0
2018-May-17 04:00N 30°13' W 093°15'0 0.0
2018-May-17 03:30N 30°13' W 093°15'0 0.0
2018-May-17 03:00N 30°13' W 093°15'0 0.0
2018-May-17 02:30N 30°13' W 093°15'0 0.0
2018-May-17 02:00N 30°13' W 093°15'0 0.0
2018-May-17 01:30N 30°13' W 093°15'0 0.0
2018-May-17 01:00N 30°13' W 093°15'0 0.0
2018-May-17 00:30N 30°13' W 093°15'0 0.0
2018-May-17 00:00N 30°13' W 093°15'0 0.0
2018-May-16 23:30N 30°13' W 093°15'0 0.0
2018-May-16 23:00N 30°13' W 093°15'0 0.0
2018-May-16 22:30N 30°13' W 093°15'0 0.0
2018-May-16 22:00N 30°13' W 093°15'0 0.0
2018-May-16 21:30N 30°13' W 093°15'0 0.0
2018-May-16 21:00N 30°13' W 093°15'0 0.0
2018-May-16 20:30N 30°13' W 093°15'0 0.0
2018-May-16 20:00N 30°13' W 093°15'1 1.3
2018-May-16 19:30N 30°12' W 093°16'1 1.8
2018-May-16 19:00N 30°13' W 093°16'1 1.7
2018-May-16 18:30N 30°14' W 093°15'1 2.0
2018-May-16 18:00N 30°13' W 093°15'0 0.0
2018-May-16 17:30N 30°13' W 093°15'0 0.0
2018-May-16 17:00N 30°13' W 093°15'0 0.0
2018-May-16 16:30N 30°13' W 093°15'0 0.0
2018-May-16 16:00N 30°13' W 093°15'0 0.0
2018-May-16 15:30N 30°13' W 093°15'0 0.0
2018-May-16 15:00N 30°13' W 093°15'0 0.0
2018-May-16 14:30N 30°13' W 093°15'0 0.0
2018-May-16 14:00N 30°13' W 093°15'0 0.0
2018-May-16 13:30N 30°13' W 093°15'0 0.0
2018-May-16 13:00N 30°13' W 093°15'2 3.4
2018-May-16 12:30N 30°12' W 093°17'2 4.3
2018-May-16 12:00N 30°11' W 093°19'0 0.4
2018-May-16 11:30N 30°11' W 093°19'3 5.9
2018-May-16 11:00N 30°12' W 093°16'1 1.5
2018-May-16 10:30N 30°13' W 093°15'0 0.0
2018-May-16 10:00N 30°13' W 093°15'0 0.0
2018-May-16 09:30N 30°13' W 093°15'0 0.0
2018-May-16 09:00N 30°13' W 093°15'0 0.0
2018-May-16 08:30N 30°13' W 093°15'0 0.0
2018-May-16 08:00N 30°13' W 093°15'0 0.0
2018-May-16 07:30N 30°13' W 093°15'0 0.0
2018-May-16 07:00N 30°13' W 093°15'0 0.0
2018-May-16 06:30N 30°13' W 093°15'0 0.0
2018-May-16 05:58N 30°13' W 093°15'0 0.0
2018-May-16 05:30N 30°13' W 093°15'0 0.0
2018-May-16 04:57N 30°13' W 093°15'0 0.0
2018-May-16 04:30N 30°13' W 093°15'0 0.0
2018-May-16 03:59N 30°13' W 093°15'0 0.0
2018-May-16 03:30N 30°13' W 093°15'0 0.0
2018-May-16 02:59N 30°13' W 093°15'0 0.0
2018-May-16 02:30N 30°13' W 093°15'0 0.0
2018-May-16 01:58N 30°13' W 093°15'0 0.0
2018-May-16 01:30N 30°13' W 093°15'0 0.0
2018-May-16 00:57N 30°13' W 093°15'0 0.0
2018-May-16 00:30N 30°13' W 093°15'0 0.0
2018-May-16 00:00N 30°13' W 093°15'0 0.0
2018-May-15 23:30N 30°13' W 093°15'0 0.0
2018-May-15 23:00N 30°13' W 093°15'0 0.0
2018-May-15 22:30N 30°13' W 093°15'0 0.0
2018-May-15 21:59N 30°13' W 093°15'0 0.0
2018-May-15 21:30N 30°13' W 093°15'0 0.0
2018-May-15 21:00N 30°13' W 093°15'0 0.0
2018-May-15 20:30N 30°13' W 093°15'0 0.0
2018-May-15 20:00N 30°13' W 093°15'0 0.0
2018-May-15 19:29N 30°13' W 093°15'0 0.0
2018-May-15 19:00N 30°13' W 093°15'0 0.0
2018-May-15 18:30N 30°13' W 093°15'0 0.0
2018-May-15 18:00N 30°13' W 093°15'0 0.0
2018-May-15 17:30N 30°13' W 093°15'0 0.0
2018-May-15 17:00N 30°13' W 093°15'0 0.0
2018-May-15 16:30N 30°13' W 093°15'0 0.0
2018-May-15 16:00N 30°13' W 093°15'0 0.0
2018-May-15 15:30N 30°13' W 093°15'0 0.0
2018-May-15 15:00N 30°13' W 093°15'0 0.0
2018-May-15 14:30N 30°13' W 093°15'0 0.0
2018-May-15 14:00N 30°13' W 093°15'0 0.0
2018-May-15 13:30N 30°13' W 093°15'2 4.6
2018-May-15 13:00N 30°12' W 093°18'4 7.1
2018-May-15 12:30N 30°09' W 093°20'1 1.6
2018-May-15 12:00N 30°09' W 093°20'0 0.5
2018-May-15 11:30N 30°09' W 093°20'2 4.7
2018-May-15 11:00N 30°11' W 093°18'3 5.1
2018-May-15 10:30N 30°13' W 093°15'0 0.0
2018-May-15 10:00N 30°13' W 093°15'0 0.0
2018-May-15 09:30N 30°13' W 093°15'0 0.0
2018-May-15 09:00N 30°13' W 093°15'2 5.0
2018-May-15 08:30N 30°11' W 093°18'1 2.9
2018-May-15 08:00N 30°10' W 093°19'0 0.1
2018-May-15 07:30N 30°11' W 093°19'1 1.3
2018-May-15 07:00N 30°11' W 093°18'0 0.6
2018-May-15 06:30N 30°11' W 093°19'0 0.5
2018-May-15 06:00N 30°11' W 093°19'0 0.0
2018-May-15 05:28N 30°11' W 093°19'2 4.1
2018-May-15 05:01N 30°09' W 093°20'2 4.0
2018-May-15 04:30N 30°11' W 093°19'1 2.3
2018-May-15 04:00N 30°12' W 093°18'1 2.8
2018-May-15 03:30N 30°11' W 093°19'0 0.6
2018-May-15 03:00N 30°11' W 093°19'2 4.5
2018-May-15 02:31N 30°12' W 093°17'1 2.3
2018-May-15 02:00N 30°13' W 093°17'  

Dump ship's entire track history